createdAt,value
2019-03-17T00:00:50.957Z,5.10
2019-03-17T00:03:20.195Z,5.20
2019-03-17T00:05:49.752Z,5.20
2019-03-17T00:08:19.119Z,5.20
2019-03-17T00:10:48.573Z,5.20
2019-03-17T00:13:17.979Z,5.10
2019-03-17T00:15:47.725Z,5.20
2019-03-17T00:18:20.496Z,5.30
2019-03-17T00:20:50.333Z,5.30
2019-03-17T00:23:19.498Z,5.30
2019-03-17T00:25:49.169Z,5.20
2019-03-17T00:28:18.506Z,5.20
2019-03-17T00:30:49.731Z,5.20
2019-03-17T00:33:19.169Z,5.10
2019-03-17T00:35:49.618Z,5.10
2019-03-17T00:38:19.088Z,5.10
2019-03-17T00:40:48.674Z,5.00
2019-03-17T00:43:17.975Z,5.00
2019-03-17T00:45:50.053Z,5.00
2019-03-17T00:48:20.230Z,5.00
2019-03-17T00:50:50.582Z,5.00
2019-03-17T00:53:19.772Z,5.00
2019-03-17T00:55:49.184Z,4.90
2019-03-17T00:58:18.688Z,4.90
2019-03-17T01:00:48.891Z,4.90
2019-03-17T01:03:18.058Z,4.90
2019-03-17T01:05:47.410Z,4.90
2019-03-17T01:08:17.948Z,4.90
2019-03-17T01:10:47.477Z,4.90
2019-03-17T01:13:16.958Z,4.90
2019-03-17T01:15:46.503Z,4.90
2019-03-17T01:18:15.922Z,4.90
2019-03-17T01:20:45.108Z,4.90
2019-03-17T01:23:14.735Z,4.90
2019-03-17T01:25:46.133Z,4.80
2019-03-17T01:28:15.696Z,4.80
2019-03-17T01:30:47.126Z,4.80
2019-03-17T01:33:16.296Z,4.80
2019-03-17T01:35:45.793Z,4.70
2019-03-17T01:38:15.254Z,4.70
2019-03-17T01:40:44.427Z,4.70
2019-03-17T01:43:13.875Z,4.70
2019-03-17T01:45:43.436Z,4.60
2019-03-17T01:48:12.890Z,4.50
2019-03-17T01:50:42.684Z,4.50
2019-03-17T01:53:12.256Z,4.50
2019-03-17T01:55:41.499Z,4.40
2019-03-17T01:58:10.977Z,4.40
2019-03-17T02:00:40.394Z,4.40
2019-03-17T02:03:10.697Z,4.40
2019-03-17T02:05:39.888Z,4.50
2019-03-17T02:08:09.046Z,4.40
2019-03-17T02:10:40.483Z,4.40
2019-03-17T02:13:09.691Z,4.40
2019-03-17T02:15:47.822Z,4.40
2019-03-17T02:18:22.942Z,4.40
2019-03-17T02:20:52.444Z,4.50
2019-03-17T02:23:21.903Z,4.50
2019-03-17T02:25:51.438Z,4.50
2019-03-17T02:28:21.215Z,4.50
2019-03-17T02:30:50.521Z,4.60
2019-03-17T02:33:19.967Z,4.60
2019-03-17T02:35:49.617Z,4.60
2019-03-17T02:38:19.087Z,4.60
2019-03-17T02:40:48.801Z,4.60
2019-03-17T02:43:18.042Z,4.60
2019-03-17T02:45:48.616Z,4.70
2019-03-17T02:48:17.807Z,4.70
2019-03-17T02:50:48.151Z,4.70
2019-03-17T02:53:17.627Z,4.70
2019-03-17T02:55:46.893Z,4.70
2019-03-17T02:58:17.457Z,4.70
2019-03-17T03:00:48.067Z,4.70
2019-03-17T03:03:17.379Z,4.80
2019-03-17T03:05:55.736Z,4.80
2019-03-17T03:08:33.104Z,4.90
2019-03-17T03:11:02.732Z,4.90
2019-03-17T03:13:38.331Z,5.00
2019-03-17T03:16:07.741Z,5.00
2019-03-17T03:18:37.245Z,5.10
2019-03-17T03:21:06.781Z,5.10
2019-03-17T03:23:37.075Z,5.10
2019-03-17T03:26:07.404Z,5.10
2019-03-17T03:28:36.912Z,5.20
2019-03-17T03:31:06.427Z,5.20
2019-03-17T03:33:35.922Z,5.20
2019-03-17T03:36:11.467Z,5.30
2019-03-17T03:38:38.615Z,5.30
2019-03-17T03:41:07.771Z,5.30
2019-03-17T03:43:36.953Z,5.30
2019-03-17T03:46:06.549Z,5.40
2019-03-17T03:48:38.694Z,5.40
2019-03-17T03:51:08.211Z,5.30
2019-03-17T03:53:37.436Z,5.30
2019-03-17T03:56:06.741Z,5.30
2019-03-17T03:58:36.072Z,5.40
2019-03-17T04:01:05.462Z,5.40
2019-03-17T04:03:35.805Z,5.50
2019-03-17T04:06:05.321Z,5.50
2019-03-17T04:08:34.772Z,5.50
2019-03-17T04:11:04.378Z,5.50
2019-03-17T04:13:33.843Z,5.50
2019-03-17T04:16:04.048Z,5.60
2019-03-17T04:18:33.563Z,5.60
2019-03-17T04:21:03.221Z,5.70
2019-03-17T04:23:32.569Z,5.70
2019-03-17T04:26:02.156Z,5.70
2019-03-17T04:28:31.644Z,5.70
2019-03-17T04:31:01.073Z,5.80
2019-03-17T04:33:30.249Z,5.80
2019-03-17T04:35:59.715Z,5.80
2019-03-17T04:38:29.190Z,5.80
2019-03-17T04:40:58.687Z,5.90
2019-03-17T04:43:27.883Z,5.90
2019-03-17T04:45:57.291Z,6.00
2019-03-17T04:48:35.118Z,6.00
2019-03-17T04:51:04.577Z,6.00
2019-03-17T04:53:34.082Z,6.10
2019-03-17T04:56:03.603Z,6.20
2019-03-17T04:58:33.023Z,6.30
2019-03-17T05:01:02.582Z,6.40
2019-03-17T05:03:32.054Z,6.40
2019-03-17T05:06:01.551Z,6.50
2019-03-17T05:08:31.047Z,6.50
2019-03-17T05:11:00.250Z,6.60
2019-03-17T05:13:29.651Z,6.60
2019-03-17T05:15:59.175Z,6.60
2019-03-17T05:18:28.699Z,6.70
2019-03-17T05:20:58.164Z,6.70
2019-03-17T05:23:27.667Z,6.70
2019-03-17T05:25:58.006Z,6.70
2019-03-17T05:28:27.485Z,6.70
2019-03-17T05:30:56.720Z,6.70
2019-03-17T05:33:26.151Z,6.80
2019-03-17T05:35:55.592Z,6.90
2019-03-17T05:38:25.919Z,6.90
2019-03-17T05:40:55.104Z,6.90
2019-03-17T05:43:24.265Z,6.90
2019-03-17T05:45:53.613Z,6.90
2019-03-17T05:48:23.179Z,6.90
2019-03-17T05:50:53.459Z,6.90
2019-03-17T05:53:22.946Z,7.00
2019-03-17T05:55:52.144Z,6.90
2019-03-17T05:58:22.379Z,6.90
2019-03-17T06:00:51.887Z,7.00
2019-03-17T06:03:21.439Z,7.00
2019-03-17T06:05:51.157Z,7.10
2019-03-17T06:08:20.393Z,7.00
2019-03-17T06:10:49.656Z,7.00
2019-03-17T06:13:19.831Z,7.00
2019-03-17T06:15:49.131Z,7.00
2019-03-17T06:18:18.515Z,7.00
2019-03-17T06:20:47.977Z,7.10
2019-03-17T06:23:17.415Z,7.20
2019-03-17T06:25:46.641Z,7.20
2019-03-17T06:28:16.014Z,7.20
2019-03-17T06:30:45.282Z,7.20
2019-03-17T06:33:14.656Z,7.30
2019-03-17T06:35:44.118Z,7.30
2019-03-17T06:38:13.362Z,7.30
2019-03-17T06:40:43.596Z,7.40
2019-03-17T06:43:13.068Z,7.40
2019-03-17T06:45:42.562Z,7.50
2019-03-17T06:48:11.778Z,7.50
2019-03-17T06:50:41.160Z,7.60
2019-03-17T06:53:10.374Z,7.70
2019-03-17T06:55:42.022Z,7.80
2019-03-17T06:58:11.255Z,7.80
2019-03-17T07:00:40.445Z,7.90
2019-03-17T07:03:09.961Z,8.00
2019-03-17T07:05:39.458Z,8.10
2019-03-17T07:08:09.073Z,8.10
2019-03-17T07:10:38.474Z,8.20
2019-03-17T07:13:07.948Z,8.30
2019-03-17T07:15:37.448Z,8.40
2019-03-17T07:18:06.654Z,8.50
2019-03-17T07:20:36.084Z,8.60
2019-03-17T07:23:05.577Z,8.70
2019-03-17T07:25:35.091Z,8.80
2019-03-17T07:28:04.626Z,8.80
2019-03-17T07:30:34.159Z,8.90
2019-03-17T07:33:03.701Z,9.00
2019-03-17T07:35:33.083Z,9.10
2019-03-17T07:38:02.580Z,9.20
2019-03-17T07:40:31.773Z,9.30
2019-03-17T07:43:01.217Z,9.30
2019-03-17T07:45:30.714Z,9.30
2019-03-17T07:48:00.384Z,9.30
2019-03-17T07:50:29.706Z,9.30
2019-03-17T07:52:58.876Z,9.30
2019-03-17T07:55:29.159Z,9.30
2019-03-17T07:57:58.610Z,9.40
2019-03-17T08:00:32.230Z,9.60
2019-03-17T08:03:00.206Z,9.80
2019-03-17T08:05:30.023Z,10.00
2019-03-17T08:08:08.864Z,10.20
2019-03-17T08:10:30.712Z,10.30
2019-03-17T08:13:00.159Z,10.50
2019-03-17T08:15:29.343Z,10.80
2019-03-17T08:17:58.805Z,10.80
2019-03-17T08:20:28.274Z,10.70
2019-03-17T08:22:57.441Z,10.60
2019-03-17T08:25:26.902Z,10.60
2019-03-17T08:27:56.439Z,10.50
2019-03-17T08:30:25.877Z,10.50
2019-03-17T08:32:55.129Z,10.50
2019-03-17T08:35:28.610Z,10.60
2019-03-17T08:38:21.276Z,10.90
2019-03-17T08:40:43.993Z,11.10
2019-03-17T08:43:13.490Z,11.40
2019-03-17T08:45:42.692Z,11.70
2019-03-17T08:48:12.095Z,11.90
2019-03-17T08:50:42.419Z,12.30
2019-03-17T08:53:17.603Z,12.30
2019-03-17T08:55:48.033Z,12.50
2019-03-17T08:58:17.481Z,12.40
2019-03-17T09:00:47.096Z,12.30
2019-03-17T09:03:16.480Z,12.10
2019-03-17T09:05:45.642Z,12.00
2019-03-17T09:08:15.133Z,12.00
2019-03-17T09:10:45.487Z,12.20
2019-03-17T09:13:14.910Z,12.40
2019-03-17T09:15:44.133Z,12.30
2019-03-17T09:18:14.349Z,12.10
2019-03-17T09:20:43.556Z,12.10
2019-03-17T09:23:12.976Z,12.00
2019-03-17T09:25:42.543Z,12.00
2019-03-17T09:28:11.952Z,12.00
2019-03-17T09:30:41.150Z,12.10
2019-03-17T09:33:10.568Z,12.40
2019-03-17T09:35:40.057Z,12.60
2019-03-17T09:38:09.256Z,12.60
2019-03-17T09:40:38.660Z,12.70
2019-03-17T09:43:07.835Z,12.90
2019-03-17T09:45:37.374Z,13.00
2019-03-17T09:48:06.783Z,13.20
2019-03-17T09:50:36.286Z,13.00
2019-03-17T09:53:05.818Z,12.70
2019-03-17T09:55:35.051Z,13.00
2019-03-17T09:58:04.317Z,13.40
2019-03-17T10:00:33.610Z,13.40
2019-03-17T10:03:03.016Z,13.20
2019-03-17T10:05:32.193Z,13.00
2019-03-17T10:08:01.648Z,12.90
2019-03-17T10:10:30.913Z,12.80
2019-03-17T10:13:00.090Z,13.00
2019-03-17T10:15:29.494Z,13.00
2019-03-17T10:17:58.795Z,12.80
2019-03-17T10:20:28.365Z,12.70
2019-03-17T10:22:57.866Z,12.70
2019-03-17T10:25:28.112Z,12.80
2019-03-17T10:27:57.275Z,13.00
2019-03-17T10:30:26.784Z,13.00
2019-03-17T10:32:56.228Z,13.00
2019-03-17T10:35:25.418Z,13.10
2019-03-17T10:37:54.846Z,13.50
2019-03-17T10:40:24.334Z,13.80
2019-03-17T10:42:53.494Z,13.80
2019-03-17T10:45:24.674Z,13.70
2019-03-17T10:47:54.679Z,13.50
2019-03-17T10:50:24.283Z,13.30
2019-03-17T10:52:53.566Z,13.20
2019-03-17T10:55:22.731Z,13.10
2019-03-17T10:57:52.505Z,13.30
2019-03-17T11:00:22.877Z,13.40
2019-03-17T11:02:52.179Z,13.60
2019-03-17T11:05:21.344Z,14.10
2019-03-17T11:07:50.611Z,14.80
2019-03-17T11:10:19.846Z,14.90
2019-03-17T11:12:49.159Z,14.90
2019-03-17T11:15:23.534Z,14.90
2019-03-17T11:17:52.784Z,14.90
2019-03-17T11:20:22.081Z,14.80
2019-03-17T11:22:51.560Z,14.90
2019-03-17T11:25:21.005Z,15.10
2019-03-17T11:27:50.351Z,15.60
2019-03-17T11:30:21.491Z,16.00
2019-03-17T11:32:50.905Z,15.90
2019-03-17T11:35:20.221Z,15.80
2019-03-17T11:37:49.518Z,15.60
2019-03-17T11:40:19.809Z,15.60
2019-03-17T11:42:50.153Z,15.20
2019-03-17T11:45:20.933Z,15.40
2019-03-17T11:47:50.941Z,15.70
2019-03-17T11:50:21.958Z,16.00
2019-03-17T11:52:52.240Z,15.90
2019-03-17T11:55:21.414Z,15.50
2019-03-17T11:57:50.881Z,15.40
2019-03-17T12:00:21.647Z,15.30
2019-03-17T12:02:51.046Z,15.40
2019-03-17T12:05:20.290Z,15.30
2019-03-17T12:07:49.662Z,15.50
2019-03-17T12:10:23.759Z,15.60
2019-03-17T12:12:53.067Z,15.50
2019-03-17T12:15:25.176Z,15.50
2019-03-17T12:17:54.420Z,15.50
2019-03-17T12:20:23.718Z,15.60
2019-03-17T12:22:52.982Z,15.90
2019-03-17T12:25:22.405Z,15.80
2019-03-17T12:27:51.679Z,15.90
2019-03-17T12:30:25.127Z,15.90
2019-03-17T12:32:55.783Z,15.80
2019-03-17T12:35:25.016Z,15.80
2019-03-17T12:37:54.359Z,15.80
2019-03-17T12:40:23.570Z,15.70
2019-03-17T12:42:52.729Z,15.70
2019-03-17T12:45:21.915Z,15.90
2019-03-17T12:47:51.164Z,16.10
2019-03-17T12:50:22.037Z,16.10
2019-03-17T12:52:51.809Z,16.30
2019-03-17T12:55:21.047Z,16.30
2019-03-17T12:57:50.686Z,16.30
2019-03-17T13:00:27.381Z,16.30
2019-03-17T13:02:56.546Z,16.50
2019-03-17T13:05:26.090Z,16.70
2019-03-17T13:07:55.575Z,16.50
2019-03-17T13:10:24.966Z,16.30
2019-03-17T13:12:54.129Z,16.50
2019-03-17T13:15:23.683Z,16.50
2019-03-17T13:17:53.891Z,16.60
2019-03-17T13:20:23.429Z,16.70
2019-03-17T13:22:53.790Z,16.70
2019-03-17T13:25:23.292Z,16.70
2019-03-17T13:27:52.724Z,16.80
2019-03-17T13:30:21.923Z,16.70
2019-03-17T13:32:51.651Z,16.60
2019-03-17T13:35:20.876Z,16.60
2019-03-17T13:37:50.565Z,16.60
2019-03-17T13:40:29.286Z,16.60
2019-03-17T13:42:52.226Z,16.70
2019-03-17T13:45:21.820Z,16.80
2019-03-17T13:47:53.077Z,16.90
2019-03-17T13:50:23.599Z,16.90
2019-03-17T13:52:53.184Z,16.80
2019-03-17T13:55:22.772Z,16.70
2019-03-17T13:58:01.101Z,16.80
2019-03-17T14:00:30.333Z,16.70
2019-03-17T14:02:59.832Z,16.80
2019-03-17T14:05:29.290Z,16.80
2019-03-17T14:07:58.738Z,16.80
2019-03-17T14:10:39.958Z,16.90
2019-03-17T14:12:59.024Z,16.90
2019-03-17T14:15:28.522Z,16.90
2019-03-17T14:17:58.004Z,17.00
2019-03-17T14:20:27.178Z,17.10
2019-03-17T14:22:56.598Z,17.20
2019-03-17T14:25:31.594Z,17.30
2019-03-17T14:28:01.344Z,17.40
2019-03-17T14:30:33.383Z,17.20
2019-03-17T14:33:02.839Z,17.10
2019-03-17T14:35:32.396Z,17.00
2019-03-17T14:38:01.853Z,16.90
2019-03-17T14:40:31.440Z,16.80
2019-03-17T14:43:00.845Z,16.80
2019-03-17T14:45:30.399Z,16.80
2019-03-17T14:48:00.704Z,16.80
2019-03-17T14:50:30.167Z,16.80
2019-03-17T14:53:00.895Z,16.80
2019-03-17T14:55:30.447Z,16.80
2019-03-17T14:57:59.990Z,16.90
2019-03-17T15:00:29.436Z,16.90
2019-03-17T15:02:58.971Z,17.00
2019-03-17T15:05:28.199Z,17.10
2019-03-17T15:07:57.588Z,17.00
2019-03-17T15:10:27.059Z,17.00
2019-03-17T15:12:58.179Z,17.00
2019-03-17T15:15:28.498Z,17.00
2019-03-17T15:17:58.039Z,17.10
2019-03-17T15:20:28.182Z,17.10
2019-03-17T15:22:57.577Z,17.20
2019-03-17T15:25:27.779Z,17.20
2019-03-17T15:27:57.932Z,17.10
2019-03-17T15:30:29.387Z,17.20
2019-03-17T15:32:58.774Z,17.10
2019-03-17T15:35:29.111Z,17.10
2019-03-17T15:37:58.635Z,17.10
2019-03-17T15:40:28.969Z,17.00
2019-03-17T15:42:58.467Z,16.90
2019-03-17T15:45:28.795Z,16.90
2019-03-17T15:47:59.088Z,16.90
2019-03-17T15:50:29.782Z,16.90
2019-03-17T15:52:59.368Z,16.80
2019-03-17T15:55:28.870Z,16.80
2019-03-17T15:57:58.417Z,16.70
2019-03-17T16:00:27.793Z,16.70
2019-03-17T16:02:57.125Z,16.60
2019-03-17T16:05:26.280Z,16.50
2019-03-17T16:07:55.590Z,16.50
2019-03-17T16:10:27.635Z,16.50
2019-03-17T16:12:56.954Z,16.40
2019-03-17T16:15:26.248Z,16.30
2019-03-17T16:17:55.665Z,16.20
2019-03-17T16:20:26.298Z,16.20
2019-03-17T16:22:55.830Z,16.20
2019-03-17T16:25:30.826Z,16.10
2019-03-17T16:28:00.260Z,16.10
2019-03-17T16:30:30.885Z,16.00
2019-03-17T16:33:00.475Z,15.90
2019-03-17T16:35:29.937Z,15.80
2019-03-17T16:37:59.476Z,15.70
2019-03-17T16:40:31.355Z,15.60
2019-03-17T16:43:00.506Z,15.50
2019-03-17T16:45:29.948Z,15.40
2019-03-17T16:47:59.487Z,15.30
2019-03-17T16:50:29.032Z,15.30
2019-03-17T16:52:58.474Z,15.30
2019-03-17T16:55:28.798Z,15.20
2019-03-17T16:57:59.139Z,15.10
2019-03-17T17:00:28.616Z,15.10
2019-03-17T17:03:04.693Z,15.00
2019-03-17T17:05:35.373Z,14.90
2019-03-17T17:08:04.911Z,14.80
2019-03-17T17:10:34.108Z,14.80
2019-03-17T17:13:03.519Z,14.70
2019-03-17T17:15:36.372Z,14.70
2019-03-17T17:18:09.192Z,14.60
2019-03-17T17:20:42.563Z,14.50
2019-03-17T17:23:12.191Z,14.50
2019-03-17T17:25:42.550Z,14.50
2019-03-17T17:28:17.980Z,14.40
2019-03-17T17:30:47.289Z,14.40
2019-03-17T17:33:16.795Z,14.40
2019-03-17T17:35:46.261Z,14.40
2019-03-17T17:38:15.457Z,14.30
2019-03-17T17:40:44.858Z,14.30
2019-03-17T17:43:14.021Z,14.30
2019-03-17T17:45:43.513Z,14.20
2019-03-17T17:48:14.353Z,14.20
2019-03-17T17:50:43.767Z,14.10
2019-03-17T17:53:13.257Z,14.10
2019-03-17T17:55:43.536Z,14.10
2019-03-17T17:58:13.166Z,14.10
2019-03-17T18:00:44.242Z,14.00
2019-03-17T18:03:13.691Z,14.10
2019-03-17T18:05:49.275Z,14.10
2019-03-17T18:08:18.565Z,14.10
2019-03-17T18:10:47.947Z,14.00
2019-03-17T18:13:17.171Z,14.00
2019-03-17T18:15:46.547Z,14.00
2019-03-17T18:18:16.861Z,14.00
2019-03-17T18:20:47.228Z,14.00
2019-03-17T18:23:18.225Z,14.00
2019-03-17T18:25:47.845Z,14.00
2019-03-17T18:28:17.379Z,14.00
2019-03-17T18:30:46.877Z,13.90
2019-03-17T18:33:17.908Z,13.90
2019-03-17T18:35:47.213Z,13.90
2019-03-17T18:38:16.624Z,14.00
2019-03-17T18:40:46.152Z,13.90
2019-03-17T18:43:15.660Z,13.80
2019-03-17T18:45:45.150Z,13.80
2019-03-17T18:48:14.685Z,13.80
2019-03-17T18:50:44.240Z,13.70
2019-03-17T18:53:13.667Z,13.80
2019-03-17T18:55:43.206Z,13.80
2019-03-17T18:58:13.594Z,13.70
2019-03-17T19:00:43.030Z,13.60
2019-03-17T19:03:13.431Z,13.50
2019-03-17T19:05:42.881Z,13.50
2019-03-17T19:08:12.113Z,13.40
2019-03-17T19:10:41.452Z,13.30
2019-03-17T19:13:10.941Z,13.20
2019-03-17T19:15:40.480Z,13.20
2019-03-17T19:18:10.016Z,13.10
2019-03-17T19:20:39.459Z,13.10
2019-03-17T19:23:08.938Z,13.00
2019-03-17T19:25:39.249Z,12.90
2019-03-17T19:28:08.445Z,12.90
2019-03-17T19:30:37.867Z,12.90
2019-03-17T19:33:07.109Z,12.90
2019-03-17T19:35:36.617Z,12.80
2019-03-17T19:38:05.836Z,12.60
2019-03-17T19:40:35.129Z,12.40
2019-03-17T19:43:04.593Z,12.20
2019-03-17T19:45:34.199Z,12.00
2019-03-17T19:48:03.684Z,11.80
2019-03-17T19:50:33.946Z,11.60
2019-03-17T19:53:03.411Z,11.40
2019-03-17T19:55:33.724Z,11.40
2019-03-17T19:58:02.929Z,11.30
2019-03-17T20:00:34.170Z,11.30
2019-03-17T20:03:03.469Z,11.20
2019-03-17T20:05:32.690Z,11.20
2019-03-17T20:08:02.070Z,11.40
2019-03-17T20:10:33.583Z,11.30
2019-03-17T20:13:11.457Z,11.20
2019-03-17T20:15:33.869Z,11.20
2019-03-17T20:18:03.091Z,11.10
2019-03-17T20:20:32.517Z,11.10
2019-03-17T20:23:01.739Z,11.00
2019-03-17T20:25:31.155Z,11.00
2019-03-17T20:28:00.626Z,11.00
2019-03-17T20:30:30.485Z,11.00
2019-03-17T20:32:59.659Z,11.00
2019-03-17T20:35:29.122Z,11.00
2019-03-17T20:37:58.687Z,11.00
2019-03-17T20:40:28.131Z,11.00
2019-03-17T20:42:57.666Z,10.90
2019-03-17T20:45:27.112Z,11.00
2019-03-17T20:48:04.454Z,11.10
2019-03-17T20:50:33.952Z,11.10
2019-03-17T20:53:03.401Z,11.20
2019-03-17T20:55:34.608Z,11.30
2019-03-17T20:58:04.090Z,11.30
2019-03-17T21:00:34.479Z,11.30
2019-03-17T21:03:04.028Z,11.40
2019-03-17T21:05:33.397Z,11.40
2019-03-17T21:08:02.566Z,11.40
2019-03-17T21:10:31.844Z,11.40
2019-03-17T21:13:01.098Z,11.50
2019-03-17T21:15:30.332Z,11.50
2019-03-17T21:17:59.556Z,11.50
2019-03-17T21:20:28.720Z,11.60
2019-03-17T21:22:57.903Z,11.40
2019-03-17T21:25:27.433Z,11.50
2019-03-17T21:28:09.993Z,11.50
2019-03-17T21:30:40.383Z,11.40
2019-03-17T21:33:09.841Z,11.50
2019-03-17T21:35:39.009Z,11.40
2019-03-17T21:38:08.474Z,11.40
2019-03-17T21:40:37.710Z,11.40
2019-03-17T21:43:06.950Z,11.40
2019-03-17T21:45:36.328Z,11.40
2019-03-17T21:48:06.472Z,11.40
2019-03-17T21:50:36.015Z,11.40
2019-03-17T21:53:05.498Z,11.40
2019-03-17T21:55:34.991Z,11.40
2019-03-17T21:58:08.106Z,11.40
2019-03-17T22:00:37.446Z,11.50
2019-03-17T22:03:10.634Z,11.50
2019-03-17T22:05:39.988Z,11.60
2019-03-17T22:08:09.570Z,11.60
2019-03-17T22:10:38.747Z,11.60
2019-03-17T22:13:08.958Z,11.50
2019-03-17T22:15:38.500Z,11.40
2019-03-17T22:18:07.910Z,11.20
2019-03-17T22:20:37.560Z,10.90
2019-03-17T22:23:06.966Z,10.80
2019-03-17T22:25:36.427Z,10.60
2019-03-17T22:28:08.482Z,10.50
2019-03-17T22:30:37.099Z,10.30
2019-03-17T22:33:06.560Z,10.20
2019-03-17T22:35:35.715Z,10.10
2019-03-17T22:38:05.211Z,10.00
2019-03-17T22:40:34.674Z,9.90
2019-03-17T22:43:03.831Z,9.90
2019-03-17T22:45:33.308Z,9.80
2019-03-17T22:48:02.768Z,9.70
2019-03-17T22:50:36.887Z,9.60
2019-03-17T22:53:06.365Z,9.50
2019-03-17T22:55:35.793Z,9.40
2019-03-17T22:58:05.034Z,9.30
2019-03-17T23:00:36.137Z,9.20
2019-03-17T23:03:06.339Z,9.20
2019-03-17T23:05:35.489Z,9.10
2019-03-17T23:08:05.085Z,9.10
2019-03-17T23:10:34.468Z,9.00
2019-03-17T23:13:03.699Z,8.90
2019-03-17T23:15:35.589Z,8.90
2019-03-17T23:18:04.264Z,8.80
2019-03-17T23:20:33.702Z,8.80
2019-03-17T23:23:02.869Z,8.80
2019-03-17T23:25:32.309Z,8.70
2019-03-17T23:28:01.546Z,8.70
2019-03-17T23:30:30.951Z,8.80
2019-03-17T23:33:00.423Z,8.70
2019-03-17T23:35:29.579Z,8.70
2019-03-17T23:37:59.052Z,8.60
2019-03-17T23:40:28.513Z,8.60
2019-03-17T23:42:57.732Z,8.60
2019-03-17T23:45:27.151Z,8.60
2019-03-17T23:47:56.628Z,8.50
2019-03-17T23:50:25.783Z,8.50
2019-03-17T23:52:55.318Z,8.50
2019-03-17T23:55:26.402Z,8.50
2019-03-17T23:57:55.874Z,8.40
